Decoded METAR's for South Africa

 
 
Print Page

Back to Weather Page

 
 

Bloemfontein - South Africa, FABL

ADDS - TAFS form results

Aviation Digital Data Service (ADDS)

Output produced by TAFs form (0556 UTC 25 February 2018)
found at http://aviationweather.gov/adds/tafs/
 
METAR text: FABL 250500Z 19008KT CAVOK 14/11 Q1017 NOSIG
Conditions at: FABL (BLOEMFONTEIN/HER, ZA) observed 0500 UTC 25 February 2018
Temperature: 14.0°C (57°F)
Dewpoint: 11.0°C (52°F) [RH = 82%]
Pressure (altimeter): 30.03 inches Hg (1017.0 mb)
Winds: from the S (190 degrees) at 9 MPH (8 knots; 4.2 m/s)
Visibility: 6 or more miles (10+ km)
Ceiling: ceiling and visibility are OK
Clouds: unknown
Weather: no significant weather observed at this time

Array
Cape Town - South Africa, FACT

ADDS - TAFS form results

Aviation Digital Data Service (ADDS)

Output produced by TAFs form (0556 UTC 25 February 2018)
found at http://aviationweather.gov/adds/tafs/
 
METAR text: FACT 250500Z 15012KT CAVOK 15/09 Q1020 NOSIG
Conditions at: FACT (CAPETOWN/DF MALA, ZA) observed 0500 UTC 25 February 2018
Temperature: 15.0°C (59°F)
Dewpoint: 9.0°C (48°F) [RH = 67%]
Pressure (altimeter): 30.12 inches Hg (1020.0 mb)
Winds: from the SSE (150 degrees) at 14 MPH (12 knots; 6.2 m/s)
Visibility: 6 or more miles (10+ km)
Ceiling: ceiling and visibility are OK
Clouds: unknown
Weather: no significant weather observed at this time

Array
Durban - South Africa, FALE

ADDS - TAFS form results

Aviation Digital Data Service (ADDS)

Output produced by TAFs form (0556 UTC 25 February 2018)
found at http://aviationweather.gov/adds/tafs/
 
METAR text: FALE 250500Z 19013KT 9999 BKN040 OVC049 18/14 Q1013 NOSIG
Conditions at: FALE (DURBAN SHAKA , ZA) observed 0500 UTC 25 February 2018
Temperature: 18.0°C (64°F)
Dewpoint: 14.0°C (57°F) [RH = 77%]
Pressure (altimeter): 29.91 inches Hg (1013.0 mb)
Winds: from the S (190 degrees) at 15 MPH (13 knots; 6.8 m/s)
Visibility: 6 or more miles (10+ km)
Ceiling: 4000 feet AGL
Clouds: broken clouds at 4000 feet AGL
overcast cloud deck at 4900 feet AGL
Weather: no significant weather observed at this time

Array
East London - South Africa, FAEL

ADDS - TAFS form results

Aviation Digital Data Service (ADDS)

Output produced by TAFs form (0556 UTC 25 February 2018)
found at http://aviationweather.gov/adds/tafs/
 
METAR text: FAEL 250552Z 27013KT 9999 SCT033 17/14 Q1020
Conditions at: FAEL (EAST LONDON/SCHO, ZA) observed 0552 UTC 25 February 2018
Temperature: 17.0°C (63°F)
Dewpoint: 14.0°C (57°F) [RH = 82%]
Pressure (altimeter): 30.12 inches Hg (1020.0 mb)
Winds: from the W (270 degrees) at 15 MPH (13 knots; 6.8 m/s)
Visibility: 6 or more miles (10+ km)
Ceiling: at least 12,000 feet AGL
Clouds: scattered clouds at 3300 feet AGL
Weather: no significant weather observed at this time

Array
George - South Africa, FAGG

ADDS - TAFS form results

Aviation Digital Data Service (ADDS)

Output produced by TAFs form (0556 UTC 25 February 2018)
found at http://aviationweather.gov/adds/tafs/
 
METAR text: FAGG 250531Z 30005KT 9999 SCT039 14/12 Q1023
Conditions at: FAGG (GEORGE/P. W. BOT, ZA) observed 0531 UTC 25 February 2018
Temperature: 14.0°C (57°F)
Dewpoint: 12.0°C (54°F) [RH = 88%]
Pressure (altimeter): 30.21 inches Hg (1023.0 mb)
Winds: from the WNW (300 degrees) at 6 MPH (5 knots; 2.6 m/s)
Visibility: 6 or more miles (10+ km)
Ceiling: at least 12,000 feet AGL
Clouds: scattered clouds at 3900 feet AGL
Weather: no significant weather observed at this time

Array
Hoedspruit - South Africa, FAHS

ADDS - TAFS form results

Aviation Digital Data Service (ADDS)

Output produced by TAFs form (0556 UTC 25 February 2018)
found at http://aviationweather.gov/adds/tafs/
 
METAR text: FAHS 250500Z AUTO 27003KT //// // ////// 23/20 Q1010
Conditions at: FAHS (HOEDSPRUIT (SAAF, ZA) observed 0500 UTC 25 February 2018
Temperature: 23.0°C (73°F)
Dewpoint: 20.0°C (68°F) [RH = 83%]
Pressure (altimeter): 29.82 inches Hg (1010.0 mb)
Winds: from the W (270 degrees) at 3 MPH (3 knots; 1.6 m/s)
Visibility: missing
Ceiling: unknown
Clouds: missing
Weather: no significant weather observed at this time

Array
Lanseria - South Africa, FALA

ADDS - TAFS form results

Aviation Digital Data Service (ADDS)

Output produced by TAFs form (0556 UTC 25 February 2018)
found at http://aviationweather.gov/adds/tafs/
 
METAR text: FALA 250536Z 30003KT 260V330 1200 BCFG BKN008 18/17 Q1018 REFG BECMG 4000 BR BKN010
Conditions at: FALA (LANSERIA (CIV/MI, ZA) observed 0536 UTC 25 February 2018
Temperature: 18.0°C (64°F)
Dewpoint: 17.0°C (63°F) [RH = 94%]
Pressure (altimeter): 30.06 inches Hg (1018.0 mb)
Winds: from the WNW (300 degrees) at 3 MPH (3 knots; 1.6 m/s)
Visibility: 0.75 miles (1.21 km)
Ceiling: 800 feet AGL
Clouds: broken clouds at 800 feet AGL
Weather: BCFG  (patches of fog)

Array
Makhado AFB - South Africa, FALM

ADDS - TAFS form results

Aviation Digital Data Service (ADDS)

Output produced by TAFs form (0556 UTC 25 February 2018)
found at http://aviationweather.gov/adds/tafs/
 
You entered "FALM"

Sorry, either there are no data available for your request or you did not enter any valid ICAO airport abbreviations.

See stations.txt for a list of known METAR and TAF locations. Then go back to the ADDS METARs or TAFs page and try again
 
Please try again and, if problems persist, then send mail to ncep.awc.adds@noaa.gov
Array
Mmabatho - South Africa, FAMM

ADDS - TAFS form results

Aviation Digital Data Service (ADDS)

Output produced by TAFs form (0556 UTC 25 February 2018)
found at http://aviationweather.gov/adds/tafs/
 
METAR text: FAMM 250500Z 23002KT 9999 OVC020 20/19 Q1017 NOSIG
Conditions at: FAMM (MMABATHO INTL AR, ZA) observed 0500 UTC 25 February 2018
Temperature: 20.0°C (68°F)
Dewpoint: 19.0°C (66°F) [RH = 94%]
Pressure (altimeter): 30.03 inches Hg (1017.0 mb)
Winds: from the SW (230 degrees) at 2 MPH (2 knots; 1.0 m/s)
Visibility: 6 or more miles (10+ km)
Ceiling: 2000 feet AGL
Clouds: overcast cloud deck at 2000 feet AGL
Weather: no significant weather observed at this time

Array
ORT Johannesburg - South Africa, FAOR

ADDS - TAFS form results

Aviation Digital Data Service (ADDS)

Output produced by TAFs form (0556 UTC 25 February 2018)
found at http://aviationweather.gov/adds/tafs/
 
METAR text: FAOR 250500Z VRB02KT 7000 FEW008 BKN012 18/16 Q1019 TEMPO 5000 BR BKN008
Conditions at: FAOR (JOHANNESBURG/TAM, ZA) observed 0500 UTC 25 February 2018
Temperature: 18.0°C (64°F)
Dewpoint: 16.0°C (61°F) [RH = 88%]
Pressure (altimeter): 30.09 inches Hg (1019.0 mb)
Winds: variable direction winds at 2 MPH (2 knots; 1.0 m/s)
Visibility: 4 miles (7 km)
Ceiling: 1200 feet AGL
Clouds: few clouds at 800 feet AGL
broken clouds at 1200 feet AGL
Weather: no significant weather observed at this time

Array
Kruger Mpumalanga - South Africa, FAKN

ADDS - TAFS form results

Aviation Digital Data Service (ADDS)

Output produced by TAFs form (0556 UTC 25 February 2018)
found at http://aviationweather.gov/adds/tafs/
 
METAR text: FAKN 250500Z 32003KT 9999 SCT015 OVC070 22/16 Q1012 NOSIG
Conditions at: FAKN (KRUGER MPUMALANG, ZA) observed 0500 UTC 25 February 2018
Temperature: 22.0°C (72°F)
Dewpoint: 16.0°C (61°F) [RH = 69%]
Pressure (altimeter): 29.88 inches Hg (1012.0 mb)
Winds: from the NW (320 degrees) at 3 MPH (3 knots; 1.6 m/s)
Visibility: 6 or more miles (10+ km)
Ceiling: 7000 feet AGL
Clouds: scattered clouds at 1500 feet AGL
overcast cloud deck at 7000 feet AGL
Weather: no significant weather observed at this time

Array
Pietermaritzburg - South Africa, FAPM

ADDS - TAFS form results

Aviation Digital Data Service (ADDS)

Output produced by TAFs form (0556 UTC 25 February 2018)
found at http://aviationweather.gov/adds/tafs/
 
You entered "FAPM"

Sorry, either there are no data available for your request or you did not enter any valid ICAO airport abbreviations.

See stations.txt for a list of known METAR and TAF locations. Then go back to the ADDS METARs or TAFs page and try again
 
Please try again and, if problems persist, then send mail to ncep.awc.adds@noaa.gov
Array
Polokwane - South Africa, FAPP

ADDS - TAFS form results

Aviation Digital Data Service (ADDS)

Output produced by TAFs form (0556 UTC 25 February 2018)
found at http://aviationweather.gov/adds/tafs/
 
METAR text: FAPP 250500Z 06003KT 9999 FEW010 BKN080 20/19 Q1016 NOSIG
Conditions at: FAPP (POLOKWANE INTL , ZA) observed 0500 UTC 25 February 2018
Temperature: 20.0°C (68°F)
Dewpoint: 19.0°C (66°F) [RH = 94%]
Pressure (altimeter): 30.00 inches Hg (1016.0 mb)
Winds: from the ENE (60 degrees) at 3 MPH (3 knots; 1.6 m/s)
Visibility: 6 or more miles (10+ km)
Ceiling: 8000 feet AGL
Clouds: few clouds at 1000 feet AGL
broken clouds at 8000 feet AGL
Weather: no significant weather observed at this time

Array
Port Elizabeth - South Africa, FAPE

ADDS - TAFS form results

Aviation Digital Data Service (ADDS)

Output produced by TAFs form (0556 UTC 25 February 2018)
found at http://aviationweather.gov/adds/tafs/
 
METAR text: FAPE 250500Z 27012KT 9999 SCT035 14/12 Q1021 NOSIG
Conditions at: FAPE (PORT ELIZABETH , ZA) observed 0500 UTC 25 February 2018
Temperature: 14.0°C (57°F)
Dewpoint: 12.0°C (54°F) [RH = 88%]
Pressure (altimeter): 30.15 inches Hg (1021.0 mb)
Winds: from the W (270 degrees) at 14 MPH (12 knots; 6.2 m/s)
Visibility: 6 or more miles (10+ km)
Ceiling: at least 12,000 feet AGL
Clouds: scattered clouds at 3500 feet AGL
Weather: no significant weather observed at this time

Array
Richards Bay - South Africa, FATB

ADDS - TAFS form results

Aviation Digital Data Service (ADDS)

Output produced by TAFs form (0556 UTC 25 February 2018)
found at http://aviationweather.gov/adds/tafs/
 
You entered "FATB"

Sorry, either there are no data available for your request or you did not enter any valid ICAO airport abbreviations.

See stations.txt for a list of known METAR and TAF locations. Then go back to the ADDS METARs or TAFs page and try again
 
Please try again and, if problems persist, then send mail to ncep.awc.adds@noaa.gov
Array
Upington - South Africa, FAUP

ADDS - TAFS form results

Aviation Digital Data Service (ADDS)

Output produced by TAFs form (0556 UTC 25 February 2018)
found at http://aviationweather.gov/adds/tafs/
 
METAR text: FAUP 250500Z 22004KT CAVOK 12/03 Q1017 NOSIG
Conditions at: FAUP (UPINGTON/PIERRE , ZA) observed 0500 UTC 25 February 2018
Temperature: 12.0°C (54°F)
Dewpoint: 3.0°C (37°F) [RH = 54%]
Pressure (altimeter): 30.03 inches Hg (1017.0 mb)
Winds: from the SW (220 degrees) at 5 MPH (4 knots; 2.1 m/s)
Visibility: 6 or more miles (10+ km)
Ceiling: ceiling and visibility are OK
Clouds: unknown
Weather: no significant weather observed at this time

Array
Wonderboom - South Africa, FAWB

ADDS - TAFS form results

Aviation Digital Data Service (ADDS)

Output produced by TAFs form (0556 UTC 25 February 2018)
found at http://aviationweather.gov/adds/tafs/
 
METAR text: FAWB 250500Z AUTO 07001KT //// // ////// 20/19 Q1015
Conditions at: FAWB (WONDERBOOM/PRETO, ZA) observed 0500 UTC 25 February 2018
Temperature: 20.0°C (68°F)
Dewpoint: 19.0°C (66°F) [RH = 94%]
Pressure (altimeter): 29.97 inches Hg (1015.0 mb)
Winds: from the ENE (70 degrees) at 1 MPH (1 knots; 0.5 m/s)
Visibility: missing
Ceiling: unknown
Clouds: missing
Weather: no significant weather observed at this time

Array